Aérodrome :
LOGIN :

S'inscrire | Disclaimer

   EN    FR    IT 

 










Légende :    VFR   VFR Marginal   IFR   IFR Intensif   IFR Très Intensif
Visi : 
Plafond : 
>= 8 km
>= 3000ft
5 à 8 km
1000 à 3000 ft
1500m à 5 km
500 à 1000 ft
800 à 1500m
200 à 500 ft
< 800m
< 200 ft
Symboles :   Orages  Brouillard  Fortes neiges  Fortes précipitations  Vent > 20 kt
SIGMETs :   Divers  Orages  Givrage  Turbulence  Onde Orograph.  Cendres Volcan.






- Altitude de l'aérodrome : 357 ft
- Code IATA : TUF


LFOT - Tours

DERNIER METAR :
  • 230730Z AUTO 23008KT 210V270 9999 OVC010 19/17 Q1021 TEMPO 4000 -DZ

METARs EXPIRÉS :
  • 230700Z AUTO 24007KT 9999 OVC010 19/17 Q1021 TEMPO 4000 -DZ
  • 230630Z AUTO 24009KT 200V270 9999 OVC010 19/17 Q1021 TEMPO 4000 -DZ
  • 230600Z AUTO 23007KT 190V260 9999 OVC010 19/16 Q1021 TEMPO 4000 -DZ
  • 230530Z AUTO 21008KT 9999 OVC011 19/16 Q1021 TEMPO BKN004
  • 230500Z AUTO 22007KT 9999 OVC011 19/16 Q1021 TEMPO BKN004
  • 230430Z AUTO 23008KT 200V270 9999 OVC011 19/16 Q1021 TEMPO BKN004
  • 230400Z AUTO 24008KT 210V270 9999 OVC011 19/17 Q1021 TEMPO BKN004
  • 230330Z AUTO 23008KT 190V270 9999 OVC011 19/16 Q1021 TEMPO BKN004
  • 230300Z AUTO 23009KT 200V260 9999 OVC013 19/16 Q1021 TEMPO BKN007

TAF TAF LFOT
Valide du 23 à 06h jusqu'au 24 à 06h UTC


230500Z 2306/2406 24008KT 9999 BKN012
PROB40
TEMPO 2306/2309 BKN007
PROB30
TEMPO 2306/2309 4000 -DZ
BECMG 2311/2313 BKN020



MET'MAP, la Météo Aéronautique d'un coup d'oeil ! - Copyright ORBIFLY Décembre 2007 - Disclaimer

ORBIFLY MET'MAP TEAM :

Programmation & Développement : Alexandra Zaïnal
Sur une idée originale de : Baudouin d'Aumeries
Soutien technique & logistique : Manuel Goepfert
Assistance : Marc-Olivier Méhu




SOURCES & CREDITS :

   NOAA